createdAt,value
2023-03-11T00:00:13.404Z,96774.06
2023-03-11T00:02:40.235Z,96788.97
2023-03-11T00:05:07.039Z,96799.31
2023-03-11T00:07:33.535Z,96811.69
2023-03-11T00:09:59.840Z,96814.97
2023-03-11T00:12:26.142Z,96824.88
2023-03-11T00:14:52.464Z,96827.03
2023-03-11T00:17:18.776Z,96831.13
2023-03-11T00:19:45.086Z,96835.69
2023-03-11T00:22:11.453Z,96840.25
2023-03-11T00:24:37.849Z,96843.97
2023-03-11T00:27:04.248Z,96858.03
2023-03-11T00:29:30.778Z,96859.19
2023-03-11T00:31:57.137Z,96876.75
2023-03-11T00:34:23.497Z,96867.19
2023-03-11T00:36:50.315Z,96875.19
2023-03-11T00:39:16.626Z,96888.03
2023-03-11T00:41:42.931Z,96895.06
2023-03-11T00:44:09.253Z,96900.38
2023-03-11T00:46:35.673Z,96912.47
2023-03-11T00:49:02.069Z,96917.28
2023-03-11T00:51:29.290Z,96909.91
2023-03-11T00:53:55.603Z,96913.97
2023-03-11T00:56:22.146Z,96913.50
2023-03-11T00:58:48.460Z,96921.50
2023-03-11T01:01:15.617Z,96927.88
2023-03-11T01:03:41.948Z,96930.56
2023-03-11T01:06:08.288Z,96933.81
2023-03-11T01:08:34.600Z,96934.41
2023-03-11T01:11:01.021Z,96944.09
2023-03-11T01:13:27.700Z,96936.69
2023-03-11T01:15:54.078Z,96952.19
2023-03-11T01:18:20.576Z,96948.25
2023-03-11T01:20:46.900Z,96956.06
2023-03-11T01:23:13.215Z,96968.88
2023-03-11T01:25:39.536Z,96972.63
2023-03-11T01:28:06.457Z,96972.44
2023-03-11T01:30:32.793Z,96966.94
2023-03-11T01:32:59.114Z,96977.09
2023-03-11T01:35:25.685Z,96981.94
2023-03-11T01:37:52.860Z,96982.94
2023-03-11T01:40:35.705Z,96979.75
2023-03-11T01:43:02.168Z,96980.84
2023-03-11T01:45:41.680Z,96984.91
2023-03-11T01:48:08.440Z,97002.28
2023-03-11T01:50:35.855Z,96999.13
2023-03-11T01:53:02.888Z,97002.38
2023-03-11T01:55:29.289Z,97006.91
2023-03-11T01:57:55.615Z,97015.50
2023-03-11T02:00:21.945Z,97014.22
2023-03-11T02:02:49.459Z,97018.25
2023-03-11T02:05:15.792Z,97022.59
2023-03-11T02:07:42.117Z,97024.47
2023-03-11T02:10:08.909Z,97024.47
2023-03-11T02:12:35.479Z,97032.97
2023-03-11T02:15:01.886Z,97026.34
2023-03-11T02:17:28.283Z,97033.03
2023-03-11T02:20:12.213Z,97037.88
2023-03-11T02:22:39.837Z,97040.06
2023-03-11T02:25:24.638Z,97045.19
2023-03-11T02:27:51.714Z,97055.31
2023-03-11T02:30:18.225Z,97068.44
2023-03-11T02:32:44.715Z,97048.19
2023-03-11T02:35:11.104Z,97065.03
2023-03-11T02:37:37.429Z,97069.56
2023-03-11T02:40:23.421Z,97063.75
2023-03-11T02:42:50.164Z,97069.09
2023-03-11T02:45:16.710Z,97068.78
2023-03-11T02:47:43.043Z,97073.03
2023-03-11T02:50:09.685Z,97069.09
2023-03-11T02:52:36.044Z,97082.69
2023-03-11T02:55:02.349Z,97073.09
2023-03-11T02:57:28.672Z,97072.91
2023-03-11T02:59:54.977Z,97081.97
2023-03-11T03:02:21.299Z,97084.16
2023-03-11T03:04:47.615Z,97083.94
2023-03-11T03:07:13.943Z,97084.53
2023-03-11T03:09:40.254Z,97090.91
2023-03-11T03:12:06.690Z,97088.31
2023-03-11T03:14:33.046Z,97086.47
2023-03-11T03:16:59.521Z,97094.16
2023-03-11T03:19:25.941Z,97098.72
2023-03-11T03:21:52.275Z,97101.84
2023-03-11T03:24:18.605Z,97104.31
2023-03-11T03:26:44.929Z,97109.94
2023-03-11T03:29:11.242Z,97112.59
2023-03-11T03:31:38.103Z,97122.22
2023-03-11T03:34:04.430Z,97123.09
2023-03-11T03:36:30.760Z,97125.25
2023-03-11T03:38:57.415Z,97123.66
2023-03-11T03:41:23.750Z,97132.72
2023-03-11T03:43:50.068Z,97139.44
2023-03-11T03:46:16.526Z,97147.41
2023-03-11T03:48:42.918Z,97152.22
2023-03-11T03:51:09.928Z,97146.91
2023-03-11T03:53:36.427Z,97161.28
2023-03-11T03:56:03.902Z,97165.53
2023-03-11T03:58:30.213Z,97168.19
2023-03-11T04:00:57.192Z,97171.16
2023-03-11T04:03:23.790Z,97173.88
2023-03-11T04:05:50.127Z,97179.47
2023-03-11T04:08:16.457Z,97173.66
2023-03-11T04:10:42.781Z,97188.31
2023-03-11T04:13:09.131Z,97177.97
2023-03-11T04:15:37.249Z,97189.97
2023-03-11T04:18:03.961Z,97193.19
2023-03-11T04:20:30.275Z,97196.16
2023-03-11T04:22:56.635Z,97197.22
2023-03-11T04:25:22.956Z,97186.38
2023-03-11T04:27:50.068Z,97199.94
2023-03-11T04:30:16.429Z,97208.22
2023-03-11T04:32:43.399Z,97197.06
2023-03-11T04:35:09.793Z,97203.72
2023-03-11T04:37:36.401Z,97204.81
2023-03-11T04:40:03.547Z,97204.03
2023-03-11T04:42:29.869Z,97215.72
2023-03-11T04:44:56.245Z,97214.38
2023-03-11T04:47:22.656Z,97225.50
2023-03-11T04:49:48.988Z,97227.13
2023-03-11T04:52:15.564Z,97226.31
2023-03-11T04:54:41.890Z,97237.53
2023-03-11T04:57:08.393Z,97238.31
2023-03-11T04:59:34.702Z,97240.47
2023-03-11T05:02:01.029Z,97250.31
2023-03-11T05:04:27.471Z,97254.00
2023-03-11T05:06:53.873Z,97246.63
2023-03-11T05:09:20.184Z,97245.28
2023-03-11T05:11:46.508Z,97269.22
2023-03-11T05:14:12.828Z,97274.06
2023-03-11T05:16:39.137Z,97274.31
2023-03-11T05:19:25.416Z,97279.13
2023-03-11T05:21:51.785Z,97287.91
2023-03-11T05:24:18.087Z,97282.59
2023-03-11T05:26:45.035Z,97290.84
2023-03-11T05:29:12.648Z,97291.91
2023-03-11T05:31:38.981Z,97293.78
2023-03-11T05:34:05.312Z,97303.91
2023-03-11T05:36:31.625Z,97300.47
2023-03-11T05:38:58.087Z,97294.13
2023-03-11T05:41:24.411Z,97293.31
2023-03-11T05:43:50.748Z,97299.72
2023-03-11T05:46:17.083Z,97314.88
2023-03-11T05:48:43.429Z,97304.78
2023-03-11T05:51:09.983Z,97309.81
2023-03-11T05:53:36.329Z,97315.38
2023-03-11T05:56:02.726Z,97319.06
2023-03-11T05:58:29.149Z,97323.59
2023-03-11T06:00:55.619Z,97323.06
2023-03-11T06:03:21.943Z,97324.16
2023-03-11T06:05:48.661Z,97327.88
2023-03-11T06:08:14.982Z,97332.41
2023-03-11T06:10:41.428Z,97323.38
2023-03-11T06:13:07.760Z,97329.75
2023-03-11T06:15:34.337Z,97331.88
2023-03-11T06:18:00.908Z,97341.72
2023-03-11T06:20:27.692Z,97344.38
2023-03-11T06:22:54.027Z,97349.22
2023-03-11T06:25:20.340Z,97364.63
2023-03-11T06:27:51.444Z,97364.63
2023-03-11T06:30:18.098Z,97363.84
2023-03-11T06:32:45.322Z,97357.22
2023-03-11T06:35:11.709Z,97367.28
2023-03-11T06:37:38.061Z,97377.91
2023-03-11T06:40:05.616Z,97374.72
2023-03-11T06:42:31.949Z,97375.25
2023-03-11T06:44:58.508Z,97375.25
2023-03-11T06:47:24.836Z,97385.09
2023-03-11T06:49:51.413Z,97390.44
2023-03-11T06:52:17.720Z,97388.84
2023-03-11T06:54:44.339Z,97399.47
2023-03-11T06:57:10.665Z,97407.44
2023-03-11T06:59:36.984Z,97415.72
2023-03-11T07:02:03.929Z,97414.94
2023-03-11T07:04:30.917Z,97414.38
2023-03-11T07:06:57.243Z,97415.47
2023-03-11T07:09:25.159Z,97424.78
2023-03-11T07:11:52.052Z,97437.03
2023-03-11T07:14:18.763Z,97437.56
2023-03-11T07:16:45.326Z,97448.97
2023-03-11T07:19:11.933Z,97455.38
2023-03-11T07:21:38.244Z,97452.72
2023-03-11T07:24:04.653Z,97452.72
2023-03-11T07:26:31.083Z,97456.16
2023-03-11T07:28:57.556Z,97457.25
2023-03-11T07:31:24.810Z,97457.25
2023-03-11T07:33:51.227Z,97462.56
2023-03-11T07:36:18.665Z,97464.19
2023-03-11T07:38:45.033Z,97476.09
2023-03-11T07:41:11.579Z,97470.28
2023-03-11T07:43:37.947Z,97474.81
2023-03-11T07:46:11.392Z,97480.59
2023-03-11T07:48:38.095Z,97481.69
2023-03-11T07:51:04.369Z,97493.91
2023-03-11T07:53:30.760Z,97499.22
2023-03-11T07:55:59.907Z,97502.94
2023-03-11T07:58:26.240Z,97508.53
2023-03-11T08:00:52.589Z,97512.00
2023-03-11T08:03:19.087Z,97516.81
2023-03-11T08:05:45.411Z,97518.63
2023-03-11T08:08:11.733Z,97525.56
2023-03-11T08:10:38.228Z,97523.13
2023-03-11T08:13:04.572Z,97533.22
2023-03-11T08:15:30.906Z,97535.03
2023-03-11T08:17:57.249Z,97539.00
2023-03-11T08:20:23.561Z,97543.72
2023-03-11T08:22:58.067Z,97549.03
2023-03-11T08:25:24.804Z,97555.38
2023-03-11T08:27:51.131Z,97564.41
2023-03-11T08:30:17.737Z,97565.44
2023-03-11T08:32:44.276Z,97560.13
2023-03-11T08:35:10.641Z,97568.16
2023-03-11T08:37:37.134Z,97568.97
2023-03-11T08:40:03.725Z,97574.53
2023-03-11T08:42:30.043Z,97581.44
2023-03-11T08:44:56.383Z,97581.44
2023-03-11T08:47:22.760Z,97579.53
2023-03-11T08:49:49.162Z,97584.56
2023-03-11T08:52:15.500Z,97600.50
2023-03-11T08:54:42.636Z,97598.88
2023-03-11T08:57:09.117Z,97600.66
2023-03-11T08:59:36.199Z,97606.06
2023-03-11T09:02:02.555Z,97597.44
2023-03-11T09:04:28.926Z,97598.31
2023-03-11T09:06:55.248Z,97595.00
2023-03-11T09:09:21.570Z,97608.78
2023-03-11T09:11:48.035Z,97610.03
2023-03-11T09:14:14.367Z,97615.75
2023-03-11T09:16:40.689Z,97612.78
2023-03-11T09:19:07.526Z,97616.47
2023-03-11T09:21:34.192Z,97625.78
2023-03-11T09:24:00.819Z,97626.13
2023-03-11T09:26:27.362Z,97639.41
2023-03-11T09:28:53.712Z,97639.59
2023-03-11T09:31:20.053Z,97637.31
2023-03-11T09:33:46.931Z,97633.41
2023-03-11T09:36:14.048Z,97640.56
2023-03-11T09:38:40.647Z,97639.13
2023-03-11T09:41:25.409Z,97651.84
2023-03-11T09:44:07.215Z,97656.09
2023-03-11T09:46:41.780Z,97655.03
2023-03-11T09:49:23.473Z,97655.53
2023-03-11T09:51:52.957Z,97655.75
2023-03-11T09:54:19.493Z,97658.84
2023-03-11T09:56:45.803Z,97651.84
2023-03-11T09:59:15.827Z,97648.03
2023-03-11T10:01:42.796Z,97644.97
2023-03-11T10:04:20.180Z,97654.00
2023-03-11T10:06:46.752Z,97652.34
2023-03-11T10:09:34.034Z,97649.94
2023-03-11T10:12:10.100Z,97648.06
2023-03-11T10:14:39.918Z,97648.06
2023-03-11T10:17:15.416Z,97639.19
2023-03-11T10:19:47.692Z,97646.13
2023-03-11T10:22:15.905Z,97646.91
2023-03-11T10:24:45.956Z,97649.81
2023-03-11T10:27:14.715Z,97651.66
2023-03-11T10:29:53.064Z,97644.72
2023-03-11T10:32:27.186Z,97649.81
2023-03-11T10:35:04.754Z,97656.72
2023-03-11T10:37:48.348Z,97667.19
2023-03-11T10:40:26.560Z,97663.81
2023-03-11T10:42:53.332Z,97671.47
2023-03-11T10:45:20.917Z,97669.78
2023-03-11T10:47:49.465Z,97672.13
2023-03-11T10:50:16.066Z,97679.53
2023-03-11T10:52:43.920Z,97683.00
2023-03-11T10:55:11.684Z,97682.50
2023-03-11T10:57:38.844Z,97678.44
2023-03-11T11:00:17.203Z,97688.88
2023-03-11T11:02:50.230Z,97685.09
2023-03-11T11:05:22.709Z,97688.22
2023-03-11T11:07:49.381Z,97685.75
2023-03-11T11:10:19.920Z,97688.72
2023-03-11T11:12:54.098Z,97686.59
2023-03-11T11:15:24.129Z,97689.25
2023-03-11T11:17:50.725Z,97685.25
2023-03-11T11:20:17.537Z,97686.53
2023-03-11T11:22:54.140Z,97683.06
2023-03-11T11:25:30.703Z,97697.03
2023-03-11T11:28:00.839Z,97694.91
2023-03-11T11:30:27.217Z,97704.50
2023-03-11T11:32:55.453Z,97694.88
2023-03-11T11:35:23.118Z,97697.22
2023-03-11T11:37:53.300Z,97687.94
2023-03-11T11:40:25.639Z,97687.47
2023-03-11T11:42:56.303Z,97692.91
2023-03-11T11:45:24.347Z,97682.84
2023-03-11T11:47:52.334Z,97684.47
2023-03-11T11:50:24.779Z,97692.25
2023-03-11T11:52:52.670Z,97694.41
2023-03-11T11:55:25.741Z,97690.88
2023-03-11T11:57:52.257Z,97693.84
2023-03-11T12:00:24.277Z,97693.13
2023-03-11T12:03:10.400Z,97691.72
2023-03-11T12:05:40.031Z,97703.25
2023-03-11T12:08:09.140Z,97702.75
2023-03-11T12:11:01.708Z,97697.91
2023-03-11T12:13:33.990Z,97698.63
2023-03-11T12:16:05.846Z,97689.75
2023-03-11T12:18:36.385Z,97691.56
2023-03-11T12:21:06.517Z,97693.34
2023-03-11T12:23:35.907Z,97685.34
2023-03-11T12:26:03.573Z,97685.53
2023-03-11T12:28:30.042Z,97688.19
2023-03-11T12:30:58.016Z,97685.75
2023-03-11T12:33:26.960Z,97683.69
2023-03-11T12:35:55.805Z,97688.16
2023-03-11T12:38:34.846Z,97694.47
2023-03-11T12:41:05.109Z,97687.78
2023-03-11T12:43:33.738Z,97694.69
2023-03-11T12:46:06.809Z,97692.19
2023-03-11T12:48:33.064Z,97696.31
2023-03-11T12:50:59.716Z,97704.75
2023-03-11T12:53:44.941Z,97704.91
2023-03-11T12:56:15.898Z,97705.97
2023-03-11T12:58:52.505Z,97710.41
2023-03-11T13:01:30.077Z,97714.72
2023-03-11T13:04:01.727Z,97714.28
2023-03-11T13:06:36.973Z,97718.88
2023-03-11T13:09:04.192Z,97718.13
2023-03-11T13:11:33.504Z,97713.91
2023-03-11T13:14:09.009Z,97714.78
2023-03-11T13:16:35.780Z,97715.34
2023-03-11T13:19:22.175Z,97719.31
2023-03-11T13:21:48.530Z,97721.78
2023-03-11T13:24:27.139Z,97725.00
2023-03-11T13:26:59.647Z,97721.03
2023-03-11T13:29:28.799Z,97727.44
2023-03-11T13:32:01.277Z,97723.19
2023-03-11T13:34:42.871Z,97725.94
2023-03-11T13:37:28.371Z,97726.47
2023-03-11T13:40:14.035Z,97722.53
2023-03-11T13:42:42.729Z,97724.09
2023-03-11T13:45:13.271Z,97719.84
2023-03-11T13:47:40.045Z,97736.66
2023-03-11T13:50:08.401Z,97741.94
2023-03-11T13:52:43.817Z,97741.94
2023-03-11T13:55:13.155Z,97751.81
2023-03-11T13:57:39.468Z,97745.75
2023-03-11T14:00:17.025Z,97751.09
2023-03-11T14:02:47.424Z,97755.09
2023-03-11T14:05:15.430Z,97755.66
2023-03-11T14:07:42.001Z,97746.13
2023-03-11T14:10:11.327Z,97750.16
2023-03-11T14:12:37.852Z,97756.06
2023-03-11T14:15:04.682Z,97756.59
2023-03-11T14:17:31.000Z,97755.03
2023-03-11T14:20:04.617Z,97760.66
2023-03-11T14:22:31.367Z,97752.34
2023-03-11T14:25:00.503Z,97752.84
2023-03-11T14:27:26.821Z,97765.69
2023-03-11T14:29:53.394Z,97757.41
2023-03-11T14:32:27.409Z,97764.91
2023-03-11T14:34:53.856Z,97771.56
2023-03-11T14:37:32.116Z,97778.78
2023-03-11T14:39:58.510Z,97772.16
2023-03-11T14:42:28.088Z,97778.03
2023-03-11T14:45:07.759Z,97778.03
2023-03-11T14:47:36.151Z,97776.97
2023-03-11T14:50:03.849Z,97779.63
2023-03-11T14:52:30.113Z,97784.47
2023-03-11T14:54:56.483Z,97790.09
2023-03-11T14:57:24.471Z,97786.59
2023-03-11T14:59:50.870Z,97790.28
2023-03-11T15:02:27.195Z,97790.09
2023-03-11T15:04:53.538Z,97788.22
2023-03-11T15:07:19.844Z,97791.38
2023-03-11T15:09:46.189Z,97790.09
2023-03-11T15:12:29.813Z,97787.44
2023-03-11T15:14:56.142Z,97790.13
2023-03-11T15:17:34.735Z,97780.03
2023-03-11T15:20:07.725Z,97783.22
2023-03-11T15:22:33.967Z,97779.28
2023-03-11T15:25:00.786Z,97781.69
2023-03-11T15:27:33.830Z,97787.28
2023-03-11T15:30:00.395Z,97783.03
2023-03-11T15:32:29.946Z,97784.66
2023-03-11T15:35:00.140Z,97779.09
2023-03-11T15:37:26.533Z,97786.56
2023-03-11T15:39:53.219Z,97784.47
2023-03-11T15:42:24.334Z,97785.03
2023-03-11T15:45:09.737Z,97787.16
2023-03-11T15:47:36.129Z,97783.69
2023-03-11T15:50:03.372Z,97786.66
2023-03-11T15:52:29.675Z,97784.28
2023-03-11T15:54:56.364Z,97785.88
2023-03-11T15:57:31.806Z,97785.34
2023-03-11T15:59:58.864Z,97785.94
2023-03-11T16:02:26.330Z,97791.28
2023-03-11T16:04:52.738Z,97789.16
2023-03-11T16:07:32.839Z,97794.78
2023-03-11T16:10:05.050Z,97796.66
2023-03-11T16:12:31.410Z,97794.75
2023-03-11T16:14:57.724Z,97794.19
2023-03-11T16:17:24.509Z,97799.00
2023-03-11T16:19:50.821Z,97796.88
2023-03-11T16:22:21.190Z,97807.56
2023-03-11T16:24:48.107Z,97805.44
2023-03-11T16:27:15.056Z,97803.81
2023-03-11T16:29:41.473Z,97809.94
2023-03-11T16:32:08.669Z,97811.00
2023-03-11T16:34:34.985Z,97804.34
2023-03-11T16:37:01.332Z,97813.44
2023-03-11T16:39:27.740Z,97808.38
2023-03-11T16:41:54.079Z,97811.03
2023-03-11T16:44:20.388Z,97812.06
2023-03-11T16:46:46.765Z,97809.16
2023-03-11T16:49:13.229Z,97810.72
2023-03-11T16:51:39.545Z,97814.44
2023-03-11T16:54:06.213Z,97813.91
2023-03-11T16:56:32.548Z,97810.69
2023-03-11T16:58:58.884Z,97821.88
2023-03-11T17:01:25.334Z,97821.31
2023-03-11T17:03:52.556Z,97831.16
2023-03-11T17:06:18.972Z,97828.75
2023-03-11T17:08:48.933Z,97830.06
2023-03-11T17:11:16.047Z,97830.31
2023-03-11T17:13:42.535Z,97835.38
2023-03-11T17:16:09.186Z,97838.28
2023-03-11T17:18:35.551Z,97835.38
2023-03-11T17:21:05.283Z,97836.47
2023-03-11T17:23:31.600Z,97830.84
2023-03-11T17:26:00.050Z,97832.94
2023-03-11T17:28:26.971Z,97833.03
2023-03-11T17:30:53.291Z,97842.22
2023-03-11T17:33:19.611Z,97838.72
2023-03-11T17:35:47.108Z,97836.81
2023-03-11T17:38:16.326Z,97833.81
2023-03-11T17:40:42.867Z,97833.81
2023-03-11T17:43:09.690Z,97839.00
2023-03-11T17:45:38.042Z,97846.47
2023-03-11T17:48:04.436Z,97844.38
2023-03-11T17:50:30.817Z,97839.03
2023-03-11T17:52:57.152Z,97853.41
2023-03-11T17:55:23.471Z,97851.75
2023-03-11T17:57:49.793Z,97847.41
2023-03-11T18:00:16.289Z,97858.00
2023-03-11T18:02:42.673Z,97849.22
2023-03-11T18:05:09.358Z,97852.81
2023-03-11T18:07:38.833Z,97853.53
2023-03-11T18:10:05.552Z,97852.38
2023-03-11T18:12:31.918Z,97861.78
2023-03-11T18:14:58.231Z,97865.56
2023-03-11T18:17:24.587Z,97869.56
2023-03-11T18:19:50.896Z,97870.34
2023-03-11T18:22:17.274Z,97861.78
2023-03-11T18:24:44.006Z,97868.19
2023-03-11T18:27:10.403Z,97869.94
2023-03-11T18:29:36.724Z,97871.59
2023-03-11T18:32:03.155Z,97868.06
2023-03-11T18:34:29.547Z,97874.72
2023-03-11T18:36:55.870Z,97868.84
2023-03-11T18:39:22.202Z,97864.22
2023-03-11T18:41:48.510Z,97870.66
2023-03-11T18:44:14.807Z,97872.72
2023-03-11T18:46:42.394Z,97876.66
2023-03-11T18:49:10.105Z,97874.66
2023-03-11T18:51:36.468Z,97876.91
2023-03-11T18:54:02.811Z,97885.19
2023-03-11T18:56:31.095Z,97879.84
2023-03-11T18:58:57.889Z,97882.97
2023-03-11T19:01:24.263Z,97887.31
2023-03-11T19:03:51.310Z,97890.53
2023-03-11T19:06:17.676Z,97885.91
2023-03-11T19:08:44.123Z,97889.41
2023-03-11T19:11:10.845Z,97888.88
2023-03-11T19:13:46.552Z,97886.50
2023-03-11T19:16:13.602Z,97884.63
2023-03-11T19:18:39.921Z,97883.19
2023-03-11T19:21:06.514Z,97877.56
2023-03-11T19:23:32.967Z,97873.41
2023-03-11T19:26:03.686Z,97875.09
2023-03-11T19:28:30.184Z,97880.38
2023-03-11T19:30:57.050Z,97877.00
2023-03-11T19:33:23.453Z,97880.19
2023-03-11T19:35:56.493Z,97880.19
2023-03-11T19:38:22.865Z,97876.44
2023-03-11T19:40:59.552Z,97874.31
2023-03-11T19:43:25.945Z,97882.81
2023-03-11T19:45:52.370Z,97899.56
2023-03-11T19:48:20.005Z,97896.03
2023-03-11T19:50:49.894Z,97906.00
2023-03-11T19:53:16.397Z,97905.22
2023-03-11T19:55:44.145Z,97902.66
2023-03-11T19:58:10.473Z,97890.03
2023-03-11T20:00:36.859Z,97894.53
2023-03-11T20:03:03.239Z,97892.69
2023-03-11T20:05:29.597Z,97885.25
2023-03-11T20:07:56.011Z,97891.16
2023-03-11T20:10:22.355Z,97904.78
2023-03-11T20:13:01.482Z,97894.97
2023-03-11T20:15:28.517Z,97896.34
2023-03-11T20:17:54.895Z,97897.63
2023-03-11T20:20:21.788Z,97895.00
2023-03-11T20:22:48.173Z,97901.03
2023-03-11T20:25:15.994Z,97897.06
2023-03-11T20:27:42.697Z,97898.94
2023-03-11T20:30:09.267Z,97896.53
2023-03-11T20:32:35.638Z,97896.84
2023-03-11T20:35:02.017Z,97900.66
2023-03-11T20:37:29.332Z,97904.09
2023-03-11T20:39:55.669Z,97896.94
2023-03-11T20:42:22.015Z,97899.31
2023-03-11T20:44:52.020Z,97911.88
2023-03-11T20:47:18.407Z,97915.59
2023-03-11T20:49:44.806Z,97915.53
2023-03-11T20:52:11.145Z,97919.00
2023-03-11T20:54:37.705Z,97913.38
2023-03-11T20:57:04.663Z,97908.56
2023-03-11T20:59:31.063Z,97910.72
2023-03-11T21:01:57.572Z,97917.03
2023-03-11T21:04:24.502Z,97910.25
2023-03-11T21:06:52.393Z,97912.31
2023-03-11T21:09:18.809Z,97918.94
2023-03-11T21:11:45.156Z,97916.97
2023-03-11T21:14:13.860Z,97916.63
2023-03-11T21:16:40.353Z,97918.97
2023-03-11T21:19:08.725Z,97912.59
2023-03-11T21:21:35.600Z,97917.72
2023-03-11T21:24:02.213Z,97921.75
2023-03-11T21:26:28.537Z,97918.06
2023-03-11T21:28:55.039Z,97918.06
2023-03-11T21:31:22.130Z,97918.38
2023-03-11T21:33:48.713Z,97917.09
2023-03-11T21:36:15.472Z,97915.19
2023-03-11T21:38:41.953Z,97919.75
2023-03-11T21:41:09.350Z,97923.78
2023-03-11T21:43:35.851Z,97920.31
2023-03-11T21:46:02.403Z,97923.00
2023-03-11T21:48:28.983Z,97920.81
2023-03-11T21:50:55.446Z,97919.06
2023-03-11T21:53:21.901Z,97918.88
2023-03-11T21:55:48.393Z,97927.94
2023-03-11T21:58:14.909Z,97921.75
2023-03-11T22:00:41.381Z,97924.34
2023-03-11T22:03:07.803Z,97923.78
2023-03-11T22:05:34.101Z,97929.91
2023-03-11T22:08:00.444Z,97929.59
2023-03-11T22:10:26.795Z,97926.75
2023-03-11T22:12:53.476Z,97923.34
2023-03-11T22:15:19.858Z,97923.34
2023-03-11T22:17:46.390Z,97918.28
2023-03-11T22:20:13.477Z,97922.03
2023-03-11T22:22:39.929Z,97922.09
2023-03-11T22:25:06.479Z,97923.44
2023-03-11T22:27:32.862Z,97925.59
2023-03-11T22:29:59.167Z,97918.94
2023-03-11T22:32:25.601Z,97927.19
2023-03-11T22:34:51.967Z,97924.88
2023-03-11T22:37:18.283Z,97918.66
2023-03-11T22:39:44.629Z,97925.06
2023-03-11T22:42:11.004Z,97925.56
2023-03-11T22:44:37.368Z,97918.94
2023-03-11T22:47:03.687Z,97917.84
2023-03-11T22:49:30.119Z,97919.72
2023-03-11T22:51:56.423Z,97929.63
2023-03-11T22:54:22.771Z,97922.94
2023-03-11T22:56:49.110Z,97929.34
2023-03-11T22:59:15.740Z,97931.50
2023-03-11T23:01:42.405Z,97934.78
2023-03-11T23:04:09.016Z,97925.44
2023-03-11T23:06:35.363Z,97933.50
2023-03-11T23:09:02.214Z,97925.50
2023-03-11T23:11:28.537Z,97932.22
2023-03-11T23:13:56.755Z,97932.47
2023-03-11T23:16:23.275Z,97933.06
2023-03-11T23:18:50.383Z,97937.38
2023-03-11T23:21:17.660Z,97935.50
2023-03-11T23:23:44.070Z,97942.94
2023-03-11T23:26:10.495Z,97931.19
2023-03-11T23:28:36.889Z,97931.69
2023-03-11T23:31:04.245Z,97936.59
2023-03-11T23:33:30.925Z,97938.22
2023-03-11T23:36:00.976Z,97940.94
2023-03-11T23:38:27.661Z,97949.22
2023-03-11T23:40:53.985Z,97952.44
2023-03-11T23:43:20.316Z,97946.59
2023-03-11T23:45:46.665Z,97941.00
2023-03-11T23:48:13.062Z,97949.56
2023-03-11T23:50:39.676Z,97947.47
2023-03-11T23:53:06.010Z,97945.63
2023-03-11T23:55:32.360Z,97946.19
2023-03-11T23:57:58.695Z,97954.47
